Ardmore, Oklahoma
Current Conditions -  °F | °C
As of 12:15 PM on Thursday 30 Oct 2014 (Local Time) from K1F0 Reporting Station
Broken Clouds Broken Clouds  
Wind Chill: 68°   Ceiling: 7000
Heat Index: 68°   Visibility: 10mi
Dew Point: 45°   Wind: 5mph
Humidity: 43%   Direction: 210°SSW
Pressure: 30.14"   Gusts: NA
Location:  34.17°N, 97.13°W
Report Text: K1F0 301715Z AUTO 21004KT 10SM BKN070 BKN085 BKN110 20/07 A3014 RMK AO2
Loading
Personal Weather Stations






























Interactive Weather Map New forecast layout! Learn more

10-Day Weather Forecast

Advertisements
Track Severe Weather on mobile